Capitol Logistics 407




KRFD
Chicago/Rockford International Airport
Rockford, Illinois
KBNA
Nashville International Airport
Nashville, Tennessee

Activity Log

Date Flight Route Aircraft Duration
05/21/2022 CPX407 JOT GUIDO J73 PXV GUMMA RYYMN2 B752 1h 18m
09/05/2021 CPX407 JOT GUIDO J73 PXV GUMMA RYYMN2 B752 1h 32m
04/26/2021 CPX407 JOT GUIDO J73 PXV GUMMA RYYMN2 B752 1h 11m
04/24/2021 CPX407 JOT GUIDO J73 PXV GUMMA RYYMN2 B738 1h 23m
04/10/2021 CPX407 JOT GUIDO J73 PXV GUMMA RYYMN2 B738 1h 20m
07/03/2020 CPX407 JOT GUIDO J73 PXV GUMMA RYYMN2 B738 1h 14m
11/26/2019 CPX407 JOT GUIDO J73 PXV GUMMA RYYMN2 B738 1h 21m
11/12/2019 CPX407 JOT GUIDO J73 PXV GUMMA RYYMN2 B738 1h 17m
10/31/2019 CPX407 N0458F410 RFD EON BVT J89 KURTZ LVT PASLY4 B752 1h 27m
09/18/2019 CPX407 N0450F410 RFD EON BVT J89 KURTZ LVT PASLY4 B752 1h 38m
03/30/2019 CPX407 JOT GUIDO J73 PXV GUMMA RYYMN2 B752 1h 19m
03/25/2019 CPX407 $$ B752 1h 25m

Route Details

Aircraft Information
Group: Narrowbodies
Types: B738,B752
Route Data
Demand: V
Distance: 382nm
Duration: 1h 10m
Recm'd Route: JOT GUIDO J73 PXV GUMMA RYYMN2
Origin Wx: KRFD 270454Z 06005KT 10SM FEW037 BKN044 OVC110 17/15 A2976 RMK AO2 RAE23 SLP073 P0000 T01720150 $
Dest. Wx: KBNA 270453Z 23006KT 10SM OVC070 19/12 A2987 RMK AO2 SLP108 T01940117
Notes:

Financial History
Total Freight: 465,521lbs
Average Load: 38,793lbs/flt
Fuel Used: 122,879lbs
Avg. Fuel Used: 10,240lbs/flt
Fuel Expense: $78,451
Avg. Fuel Expense: $6,538
Avg. Fuel Cost: $0.63/lbs
Total Gross Income: $691,858
Pilot Pay: $1,658
Total Expenses: $82,734
Total Revenue: $528,475
Average Revenue: $57,654.84